createdAt,value
2019-02-25T00:01:00.134Z,11.80
2019-02-25T00:03:31.406Z,11.80
2019-02-25T00:06:00.975Z,11.80
2019-02-25T00:08:31.110Z,11.90
2019-02-25T00:11:00.812Z,11.80
2019-02-25T00:13:30.563Z,11.80
2019-02-25T00:16:00.133Z,11.80
2019-02-25T00:18:29.731Z,11.80
2019-02-25T00:20:59.308Z,11.70
2019-02-25T00:23:28.901Z,11.70
2019-02-25T00:25:58.512Z,11.70
2019-02-25T00:28:28.163Z,11.70
2019-02-25T00:30:57.735Z,11.60
2019-02-25T00:33:27.384Z,11.60
2019-02-25T00:35:58.124Z,11.60
2019-02-25T00:38:27.727Z,11.60
2019-02-25T00:40:57.233Z,11.50
2019-02-25T00:43:27.244Z,11.50
2019-02-25T00:45:56.823Z,11.40
2019-02-25T00:48:26.892Z,11.40
2019-02-25T00:50:56.595Z,11.40
2019-02-25T00:53:26.622Z,11.30
2019-02-25T00:55:56.268Z,11.30
2019-02-25T00:58:25.988Z,11.30
2019-02-25T01:00:55.799Z,11.20
2019-02-25T01:03:25.304Z,11.20
2019-02-25T01:05:55.356Z,11.20
2019-02-25T01:08:25.365Z,11.20
2019-02-25T01:10:55.032Z,11.10
2019-02-25T01:13:26.135Z,11.10
2019-02-25T01:15:55.791Z,11.10
2019-02-25T01:18:25.499Z,11.10
2019-02-25T01:20:55.064Z,11.10
2019-02-25T01:23:25.034Z,11.20
2019-02-25T01:25:54.641Z,11.20
2019-02-25T01:28:25.368Z,11.20
2019-02-25T01:30:55.313Z,11.30
2019-02-25T01:33:25.341Z,11.20
2019-02-25T01:35:55.499Z,11.10
2019-02-25T01:38:25.228Z,11.10
2019-02-25T01:40:55.957Z,11.00
2019-02-25T01:43:25.614Z,10.90
2019-02-25T01:45:55.175Z,10.90
2019-02-25T01:48:25.128Z,10.90
2019-02-25T01:50:54.761Z,10.90
2019-02-25T01:53:24.426Z,10.90
2019-02-25T01:55:54.019Z,10.90
2019-02-25T01:58:23.652Z,10.90
2019-02-25T02:00:54.238Z,10.90
2019-02-25T02:03:23.801Z,10.90
2019-02-25T02:05:53.556Z,10.90
2019-02-25T02:08:23.533Z,10.90
2019-02-25T02:10:53.161Z,10.90
2019-02-25T02:13:22.807Z,10.90
2019-02-25T02:15:53.519Z,10.90
2019-02-25T02:18:23.599Z,10.90
2019-02-25T02:20:53.301Z,10.90
2019-02-25T02:23:22.857Z,10.80
2019-02-25T02:25:52.518Z,10.90
2019-02-25T02:28:22.441Z,10.90
2019-02-25T02:30:52.026Z,10.90
2019-02-25T02:33:21.947Z,10.90
2019-02-25T02:35:51.685Z,10.90
2019-02-25T02:38:21.331Z,10.90
2019-02-25T02:40:51.293Z,10.90
2019-02-25T02:43:20.940Z,10.90
2019-02-25T02:46:02.582Z,10.90
2019-02-25T02:48:37.815Z,10.90
2019-02-25T02:51:07.494Z,10.90
2019-02-25T02:53:38.581Z,10.90
2019-02-25T02:56:08.614Z,10.90
2019-02-25T02:58:38.251Z,10.90
2019-02-25T03:01:07.815Z,10.90
2019-02-25T03:03:37.491Z,10.80
2019-02-25T03:06:07.129Z,10.70
2019-02-25T03:08:36.810Z,10.80
2019-02-25T03:11:06.852Z,10.80
2019-02-25T03:13:36.565Z,10.80
2019-02-25T03:16:06.579Z,10.80
2019-02-25T03:18:36.314Z,10.80
2019-02-25T03:21:05.967Z,10.80
2019-02-25T03:23:35.628Z,10.70
2019-02-25T03:26:05.324Z,10.70
2019-02-25T03:28:34.970Z,10.80
2019-02-25T03:31:04.968Z,10.80
2019-02-25T03:33:34.896Z,10.80
2019-02-25T03:36:04.613Z,10.80
2019-02-25T03:38:34.255Z,10.90
2019-02-25T03:41:03.835Z,10.80
2019-02-25T03:43:33.523Z,10.90
2019-02-25T03:46:03.261Z,10.90
2019-02-25T03:48:33.220Z,10.80
2019-02-25T03:51:02.962Z,10.80
2019-02-25T03:53:32.552Z,10.80
2019-02-25T03:56:02.225Z,10.80
2019-02-25T03:58:31.956Z,10.80
2019-02-25T04:01:01.683Z,10.80
2019-02-25T04:03:31.396Z,10.70
2019-02-25T04:06:01.502Z,10.70
2019-02-25T04:08:31.533Z,10.70
2019-02-25T04:11:01.180Z,10.70
2019-02-25T04:13:30.841Z,10.60
2019-02-25T04:16:01.453Z,10.60
2019-02-25T04:18:31.052Z,10.60
2019-02-25T04:21:01.086Z,10.50
2019-02-25T04:23:30.829Z,10.50
2019-02-25T04:26:00.412Z,10.60
2019-02-25T04:28:29.983Z,10.60
2019-02-25T04:30:59.925Z,10.50
2019-02-25T04:33:29.499Z,10.50
2019-02-25T04:35:59.081Z,10.50
2019-02-25T04:38:28.715Z,10.50
2019-02-25T04:40:58.367Z,10.40
2019-02-25T04:43:29.316Z,10.40
2019-02-25T04:45:58.902Z,10.40
2019-02-25T04:48:28.480Z,10.40
2019-02-25T04:50:58.529Z,10.40
2019-02-25T04:53:28.547Z,10.40
2019-02-25T04:55:58.598Z,10.40
2019-02-25T04:58:28.578Z,10.40
2019-02-25T05:00:58.228Z,10.40
2019-02-25T05:03:27.816Z,10.40
2019-02-25T05:05:57.406Z,10.30
2019-02-25T05:08:27.069Z,10.20
2019-02-25T05:10:57.028Z,10.30
2019-02-25T05:13:26.602Z,10.30
2019-02-25T05:15:56.213Z,10.20
2019-02-25T05:18:26.272Z,10.20
2019-02-25T05:20:56.382Z,10.10
2019-02-25T05:23:26.272Z,10.20
2019-02-25T05:25:55.848Z,10.10
2019-02-25T05:28:25.791Z,10.10
2019-02-25T05:30:55.364Z,10.10
2019-02-25T05:33:25.024Z,10.10
2019-02-25T05:35:54.523Z,10.10
2019-02-25T05:38:24.565Z,10.10
2019-02-25T05:40:54.207Z,10.10
2019-02-25T05:43:24.179Z,10.10
2019-02-25T05:45:54.308Z,10.10
2019-02-25T05:48:23.925Z,10.10
2019-02-25T05:50:53.432Z,10.10
2019-02-25T05:53:23.323Z,10.00
2019-02-25T05:55:52.914Z,10.10
2019-02-25T05:58:23.877Z,10.00
2019-02-25T06:00:53.884Z,10.00
2019-02-25T06:03:23.805Z,10.00
2019-02-25T06:05:53.521Z,10.00
2019-02-25T06:08:23.429Z,9.90
2019-02-25T06:10:53.038Z,9.90
2019-02-25T06:13:23.158Z,9.90
2019-02-25T06:15:52.803Z,9.90
2019-02-25T06:18:22.366Z,9.90
2019-02-25T06:20:52.019Z,9.70
2019-02-25T06:23:21.594Z,8.50
2019-02-25T06:25:52.794Z,7.30
2019-02-25T06:28:22.356Z,6.80
2019-02-25T06:30:52.005Z,6.60
2019-02-25T06:33:21.648Z,6.40
2019-02-25T06:35:51.304Z,6.20
2019-02-25T06:38:20.807Z,6.10
2019-02-25T06:40:50.697Z,6.10
2019-02-25T06:43:20.590Z,6.00
2019-02-25T06:45:50.204Z,5.90
2019-02-25T06:48:19.834Z,5.70
2019-02-25T06:50:50.862Z,5.70
2019-02-25T06:53:20.865Z,5.70
2019-02-25T06:55:50.524Z,5.70
2019-02-25T06:58:20.498Z,5.60
2019-02-25T07:00:49.989Z,5.50
2019-02-25T07:03:19.682Z,5.70
2019-02-25T07:05:51.359Z,5.90
2019-02-25T07:08:41.250Z,6.10
2019-02-25T07:11:15.463Z,6.10
2019-02-25T07:13:49.582Z,6.00
2019-02-25T07:16:23.787Z,6.10
2019-02-25T07:18:57.997Z,6.20
2019-02-25T07:21:45.708Z,6.50
2019-02-25T07:24:19.761Z,6.60
2019-02-25T07:26:57.038Z,6.70
2019-02-25T07:29:40.462Z,6.80
2019-02-25T07:32:30.039Z,6.80
2019-02-25T07:35:01.029Z,7.00
2019-02-25T07:37:38.342Z,8.20
2019-02-25T07:40:13.308Z,10.60
2019-02-25T07:42:44.544Z,12.40
2019-02-25T07:45:17.648Z,14.40
2019-02-25T07:47:48.995Z,15.40
2019-02-25T07:50:29.255Z,17.00
2019-02-25T07:53:09.809Z,17.50
2019-02-25T07:55:41.457Z,18.00
2019-02-25T07:58:22.331Z,18.10
2019-02-25T08:00:53.692Z,18.50
2019-02-25T08:03:26.239Z,18.60
2019-02-25T08:05:58.028Z,18.90
2019-02-25T08:08:31.980Z,19.20
2019-02-25T08:11:21.845Z,19.70
2019-02-25T08:14:02.679Z,19.80
2019-02-25T08:16:34.336Z,20.30
2019-02-25T08:19:11.927Z,20.60
2019-02-25T08:21:46.554Z,20.70
2019-02-25T08:24:30.334Z,20.70
2019-02-25T08:26:56.956Z,21.00
2019-02-25T08:29:28.306Z,21.10
2019-02-25T08:32:14.538Z,21.50
2019-02-25T08:34:57.734Z,21.60
2019-02-25T08:37:34.794Z,22.10
2019-02-25T08:40:14.417Z,22.20
2019-02-25T08:42:47.310Z,22.70
2019-02-25T08:45:33.947Z,23.00
2019-02-25T08:48:05.686Z,23.50
2019-02-25T08:50:35.682Z,24.30
2019-02-25T08:53:05.347Z,24.40
2019-02-25T08:55:35.021Z,24.10
2019-02-25T08:58:04.602Z,24.90
2019-02-25T09:00:34.269Z,25.20
2019-02-25T09:03:04.350Z,25.50
2019-02-25T09:05:34.045Z,25.60
2019-02-25T09:08:03.984Z,26.80
2019-02-25T09:10:33.723Z,26.50
2019-02-25T09:13:03.465Z,25.70
2019-02-25T09:15:33.202Z,25.30
2019-02-25T09:18:01.703Z,25.50
2019-02-25T09:20:31.595Z,25.30
2019-02-25T09:23:01.275Z,25.70
2019-02-25T09:25:31.020Z,26.00
2019-02-25T09:28:00.520Z,26.50
2019-02-25T09:30:30.201Z,26.40
2019-02-25T09:32:59.857Z,27.00
2019-02-25T09:35:29.584Z,27.30
2019-02-25T09:37:59.171Z,27.30
2019-02-25T09:40:28.850Z,27.40
2019-02-25T09:42:58.576Z,27.30
2019-02-25T09:45:28.092Z,27.20
2019-02-25T09:47:57.747Z,27.40
2019-02-25T09:50:27.455Z,27.00
2019-02-25T09:52:57.039Z,27.60
2019-02-25T09:55:26.621Z,27.30
2019-02-25T09:57:56.391Z,27.90
2019-02-25T10:00:26.446Z,27.60
2019-02-25T10:02:56.100Z,28.60
2019-02-25T10:05:25.824Z,28.80
2019-02-25T10:07:55.446Z,29.10
2019-02-25T10:10:25.089Z,29.00
2019-02-25T10:12:55.201Z,29.00
2019-02-25T10:15:28.653Z,28.80
2019-02-25T10:17:58.608Z,29.00
2019-02-25T10:20:28.257Z,30.00
2019-02-25T10:22:57.979Z,30.30
2019-02-25T10:25:28.002Z,30.70
2019-02-25T10:27:57.562Z,30.70
2019-02-25T10:30:27.136Z,30.70
2019-02-25T10:32:57.078Z,31.00
2019-02-25T10:35:27.741Z,30.70
2019-02-25T10:37:57.445Z,30.70
2019-02-25T10:40:27.591Z,31.20
2019-02-25T10:42:57.607Z,31.20
2019-02-25T10:45:27.251Z,31.10
2019-02-25T10:47:58.796Z,31.10
2019-02-25T10:50:31.155Z,31.00
2019-02-25T10:53:03.494Z,31.00
2019-02-25T10:55:53.105Z,31.20
2019-02-25T10:58:24.768Z,31.70
2019-02-25T11:00:54.671Z,32.10
2019-02-25T11:03:24.367Z,32.10
2019-02-25T11:05:56.207Z,32.60
2019-02-25T11:08:25.701Z,32.40
2019-02-25T11:11:00.266Z,32.80
2019-02-25T11:13:31.803Z,33.20
2019-02-25T11:16:01.145Z,33.10
2019-02-25T11:18:30.797Z,32.90
2019-02-25T11:21:01.366Z,33.60
2019-02-25T11:23:31.791Z,34.30
2019-02-25T11:26:02.222Z,34.60
2019-02-25T11:28:33.895Z,34.00
2019-02-25T11:31:03.927Z,33.70
2019-02-25T11:33:34.349Z,33.30
2019-02-25T11:36:04.071Z,32.60
2019-02-25T11:38:37.070Z,30.10
2019-02-25T11:41:07.089Z,27.40
2019-02-25T11:43:37.487Z,25.30
2019-02-25T11:46:07.351Z,23.80
2019-02-25T11:48:36.919Z,22.70
2019-02-25T11:51:07.027Z,21.70
2019-02-25T11:53:36.975Z,21.10
2019-02-25T11:56:06.624Z,20.60
2019-02-25T11:58:36.396Z,19.90
2019-02-25T12:01:06.376Z,19.60
2019-02-25T12:03:36.028Z,19.30
2019-02-25T12:06:05.706Z,19.10
2019-02-25T12:08:35.330Z,18.90
2019-02-25T12:11:05.011Z,18.90
2019-02-25T12:13:35.031Z,18.60
2019-02-25T12:16:05.176Z,18.60
2019-02-25T12:18:34.989Z,18.50
2019-02-25T12:21:05.016Z,18.50
2019-02-25T12:23:34.753Z,18.60
2019-02-25T12:26:04.768Z,18.40
2019-02-25T12:28:34.757Z,18.50
2019-02-25T12:31:04.403Z,18.50
2019-02-25T12:33:33.997Z,18.60
2019-02-25T12:36:03.672Z,18.60
2019-02-25T12:38:33.402Z,18.50
2019-02-25T12:41:03.146Z,18.40
2019-02-25T12:43:33.200Z,18.50
2019-02-25T12:46:03.140Z,18.50
2019-02-25T12:48:33.134Z,18.50
2019-02-25T12:51:02.790Z,18.40
2019-02-25T12:53:32.390Z,18.50
2019-02-25T12:56:01.963Z,18.20
2019-02-25T12:58:31.708Z,18.30
2019-02-25T13:01:01.678Z,18.30
2019-02-25T13:03:31.311Z,18.20
2019-02-25T13:06:01.642Z,18.10
2019-02-25T13:08:31.551Z,17.90
2019-02-25T13:11:01.526Z,18.00
2019-02-25T13:13:31.464Z,17.80
2019-02-25T13:16:01.119Z,17.90
2019-02-25T13:18:30.797Z,17.90
2019-02-25T13:21:01.445Z,17.90
2019-02-25T13:23:31.094Z,17.90
2019-02-25T13:26:07.410Z,17.90
2019-02-25T13:28:33.616Z,17.90
2019-02-25T13:31:05.272Z,17.80
2019-02-25T13:33:34.959Z,17.80
2019-02-25T13:36:07.967Z,17.80
2019-02-25T13:38:37.967Z,17.80
2019-02-25T13:41:07.692Z,17.90
2019-02-25T13:43:37.711Z,17.80
2019-02-25T13:46:07.238Z,17.80
2019-02-25T13:48:36.875Z,17.80
2019-02-25T13:51:06.918Z,17.80
2019-02-25T13:53:36.527Z,17.70
2019-02-25T13:56:06.118Z,17.60
2019-02-25T13:58:35.790Z,17.50
2019-02-25T14:01:07.011Z,17.40
2019-02-25T14:03:36.737Z,17.40
2019-02-25T14:06:06.824Z,17.40
2019-02-25T14:08:36.395Z,17.40
2019-02-25T14:11:06.183Z,17.50
2019-02-25T14:13:36.197Z,17.50
2019-02-25T14:16:06.317Z,17.50
2019-02-25T14:18:36.447Z,17.50
2019-02-25T14:21:08.165Z,17.60
2019-02-25T14:23:38.262Z,17.60
2019-02-25T14:26:09.250Z,17.50
2019-02-25T14:28:38.928Z,17.50
2019-02-25T14:31:09.278Z,17.50
2019-02-25T14:33:39.722Z,17.50
2019-02-25T14:36:10.629Z,17.60
2019-02-25T14:38:40.660Z,17.50
2019-02-25T14:41:11.708Z,17.50
2019-02-25T14:43:46.179Z,17.50
2019-02-25T14:46:14.433Z,17.50
2019-02-25T14:48:44.401Z,17.60
2019-02-25T14:51:14.391Z,17.60
2019-02-25T14:53:44.700Z,17.60
2019-02-25T14:56:15.474Z,17.60
2019-02-25T14:58:47.260Z,17.60
2019-02-25T15:01:18.060Z,17.70
2019-02-25T15:03:47.985Z,17.60
2019-02-25T15:06:17.691Z,17.60
2019-02-25T15:08:47.386Z,17.70
2019-02-25T15:11:17.094Z,17.70
2019-02-25T15:13:47.192Z,17.80
2019-02-25T15:16:17.247Z,17.80
2019-02-25T15:18:47.293Z,17.70
2019-02-25T15:21:17.044Z,17.70
2019-02-25T15:23:46.789Z,17.70
2019-02-25T15:26:17.383Z,17.70
2019-02-25T15:28:51.687Z,17.60
2019-02-25T15:31:20.046Z,17.70
2019-02-25T15:33:49.808Z,17.50
2019-02-25T15:36:20.557Z,17.50
2019-02-25T15:38:51.352Z,17.40
2019-02-25T15:41:21.035Z,17.40
2019-02-25T15:43:50.908Z,17.20
2019-02-25T15:46:22.156Z,17.20
2019-02-25T15:48:53.056Z,17.20
2019-02-25T15:51:23.063Z,17.20
2019-02-25T15:53:53.996Z,17.30
2019-02-25T15:56:24.381Z,17.20
2019-02-25T15:58:54.546Z,17.10
2019-02-25T16:01:24.651Z,17.00
2019-02-25T16:03:58.120Z,17.00
2019-02-25T16:06:28.837Z,16.90
2019-02-25T16:08:58.775Z,16.80
2019-02-25T16:11:29.121Z,16.80
2019-02-25T16:14:00.650Z,16.80
2019-02-25T16:16:31.330Z,16.70
2019-02-25T16:19:01.020Z,16.70
2019-02-25T16:21:31.203Z,16.50
2019-02-25T16:24:04.022Z,16.50
2019-02-25T16:26:34.082Z,16.50
2019-02-25T16:29:06.471Z,16.40
2019-02-25T16:31:37.496Z,16.40
2019-02-25T16:34:07.933Z,16.30
2019-02-25T16:36:39.232Z,16.30
2019-02-25T16:39:10.133Z,16.20
2019-02-25T16:41:41.742Z,16.10
2019-02-25T16:44:12.558Z,16.00
2019-02-25T16:46:43.773Z,15.90
2019-02-25T16:49:13.590Z,15.90
2019-02-25T16:51:43.336Z,15.80
2019-02-25T16:54:14.236Z,15.80
2019-02-25T16:56:44.767Z,15.80
2019-02-25T16:59:15.735Z,15.60
2019-02-25T17:01:45.701Z,15.50
2019-02-25T17:04:16.836Z,15.20
2019-02-25T17:06:46.862Z,15.20
2019-02-25T17:09:20.438Z,15.10
2019-02-25T17:11:51.042Z,14.90
2019-02-25T17:14:21.837Z,14.80
2019-02-25T17:16:52.419Z,14.60
2019-02-25T17:19:23.471Z,14.50
2019-02-25T17:21:53.656Z,14.40
2019-02-25T17:24:23.987Z,14.40
2019-02-25T17:26:54.832Z,14.20
2019-02-25T17:29:25.080Z,14.20
2019-02-25T17:31:57.404Z,14.00
2019-02-25T17:34:27.954Z,13.90
2019-02-25T17:36:58.481Z,13.70
2019-02-25T17:39:29.479Z,13.60
2019-02-25T17:42:01.289Z,13.60
2019-02-25T17:44:32.131Z,13.60
2019-02-25T17:47:04.440Z,13.60
2019-02-25T17:49:35.731Z,13.50
2019-02-25T17:52:05.962Z,13.60
2019-02-25T17:54:37.649Z,13.40
2019-02-25T17:57:07.604Z,13.30
2019-02-25T17:59:39.199Z,13.30
2019-02-25T18:02:11.024Z,13.30
2019-02-25T18:04:41.651Z,13.30
2019-02-25T18:07:11.573Z,13.20
2019-02-25T18:09:42.640Z,13.10
2019-02-25T18:12:12.863Z,12.80
2019-02-25T18:14:43.255Z,12.80
2019-02-25T18:17:16.912Z,12.80
2019-02-25T18:19:47.872Z,12.80
2019-02-25T18:22:17.639Z,12.80
2019-02-25T18:24:47.946Z,12.70
2019-02-25T18:27:18.146Z,12.60
2019-02-25T18:29:50.039Z,12.60
2019-02-25T18:32:20.047Z,12.60
2019-02-25T18:34:50.436Z,12.60
2019-02-25T18:37:21.307Z,12.60
2019-02-25T18:39:52.255Z,12.70
2019-02-25T18:42:22.776Z,12.70
2019-02-25T18:44:53.554Z,12.60
2019-02-25T18:47:25.065Z,12.60
2019-02-25T18:49:56.577Z,12.60
2019-02-25T18:52:27.412Z,12.70
2019-02-25T18:54:57.770Z,12.80
2019-02-25T18:57:29.046Z,12.50
2019-02-25T18:59:59.367Z,12.60
2019-02-25T19:02:33.307Z,12.60
2019-02-25T19:05:04.477Z,12.60
2019-02-25T19:07:34.734Z,12.70
2019-02-25T19:10:04.604Z,12.50
2019-02-25T19:12:34.483Z,12.60
2019-02-25T19:15:07.068Z,12.60
2019-02-25T19:17:37.581Z,12.60
2019-02-25T19:20:11.264Z,12.60
2019-02-25T19:22:41.884Z,12.50
2019-02-25T19:25:15.818Z,12.50
2019-02-25T19:27:44.611Z,12.40
2019-02-25T19:30:19.512Z,12.40
2019-02-25T19:32:48.901Z,12.40
2019-02-25T19:35:19.439Z,12.40
2019-02-25T19:37:51.097Z,12.50
2019-02-25T19:40:24.311Z,12.50
2019-02-25T19:42:56.148Z,13.10
2019-02-25T19:45:25.491Z,13.70
2019-02-25T19:47:57.608Z,14.20
2019-02-25T19:50:27.719Z,14.60
2019-02-25T19:53:00.403Z,15.00
2019-02-25T19:55:29.719Z,15.20
2019-02-25T19:57:59.722Z,15.40
2019-02-25T20:00:30.373Z,15.60
2019-02-25T20:03:05.569Z,15.70
2019-02-25T20:05:33.499Z,15.80
2019-02-25T20:08:03.306Z,15.90
2019-02-25T20:10:33.485Z,15.90
2019-02-25T20:13:05.645Z,15.90
2019-02-25T20:15:37.642Z,16.00
2019-02-25T20:18:07.174Z,16.00
2019-02-25T20:20:39.003Z,16.00
2019-02-25T20:23:08.749Z,15.90
2019-02-25T20:25:42.330Z,15.90
2019-02-25T20:28:09.907Z,15.90
2019-02-25T20:30:40.114Z,15.90
2019-02-25T20:33:10.896Z,15.80
2019-02-25T20:35:40.715Z,15.80
2019-02-25T20:38:10.421Z,15.80
2019-02-25T20:40:40.589Z,15.70
2019-02-25T20:43:10.359Z,15.80
2019-02-25T20:45:40.569Z,15.80
2019-02-25T20:48:10.633Z,15.80
2019-02-25T20:50:40.321Z,15.70
2019-02-25T20:53:11.092Z,15.70
2019-02-25T20:55:40.995Z,15.70
2019-02-25T20:58:11.520Z,15.80
2019-02-25T21:00:44.022Z,15.70
2019-02-25T21:03:16.034Z,15.70
2019-02-25T21:05:45.045Z,15.70
2019-02-25T21:08:16.916Z,15.70
2019-02-25T21:10:47.344Z,15.60
2019-02-25T21:13:17.067Z,15.60
2019-02-25T21:15:47.186Z,15.50
2019-02-25T21:18:16.882Z,15.50
2019-02-25T21:20:47.723Z,15.50
2019-02-25T21:23:18.041Z,15.40
2019-02-25T21:25:47.822Z,15.40
2019-02-25T21:28:17.877Z,15.40
2019-02-25T21:30:48.863Z,15.40
2019-02-25T21:33:19.854Z,15.30
2019-02-25T21:35:50.464Z,15.30
2019-02-25T21:38:21.673Z,15.30
2019-02-25T21:40:52.698Z,15.20
2019-02-25T21:43:24.112Z,15.20
2019-02-25T21:45:56.446Z,15.20
2019-02-25T21:48:27.541Z,15.10
2019-02-25T21:51:00.103Z,15.10
2019-02-25T21:53:29.117Z,15.10
2019-02-25T21:56:04.256Z,15.10
2019-02-25T21:58:31.295Z,15.00
2019-02-25T22:01:02.136Z,15.00
2019-02-25T22:03:32.238Z,15.00
2019-02-25T22:06:04.808Z,15.00
2019-02-25T22:08:36.143Z,15.00
2019-02-25T22:11:12.398Z,15.00
2019-02-25T22:13:37.643Z,15.00
2019-02-25T22:16:08.485Z,15.00
2019-02-25T22:18:38.251Z,15.00
2019-02-25T22:21:09.542Z,15.00
2019-02-25T22:23:39.713Z,14.90
2019-02-25T22:26:09.395Z,14.90
2019-02-25T22:28:39.546Z,14.90
2019-02-25T22:31:10.912Z,14.80
2019-02-25T22:33:40.608Z,14.90
2019-02-25T22:36:10.392Z,14.80
2019-02-25T22:38:40.081Z,14.80
2019-02-25T22:41:10.835Z,14.80
2019-02-25T22:43:41.808Z,14.70
2019-02-25T22:46:11.885Z,14.70
2019-02-25T22:48:43.176Z,14.70
2019-02-25T22:51:12.855Z,14.70
2019-02-25T22:54:10.096Z,14.70
2019-02-25T22:56:40.287Z,14.70
2019-02-25T22:59:10.922Z,14.70
2019-02-25T23:01:41.455Z,14.70
2019-02-25T23:04:15.017Z,14.60
2019-02-25T23:06:44.533Z,14.70
2019-02-25T23:09:16.469Z,14.60
2019-02-25T23:11:48.359Z,14.60
2019-02-25T23:14:20.577Z,14.50
2019-02-25T23:16:50.863Z,14.50
2019-02-25T23:19:22.542Z,14.50
2019-02-25T23:21:53.193Z,14.50
2019-02-25T23:24:26.046Z,14.50
2019-02-25T23:26:57.348Z,14.50
2019-02-25T23:29:28.583Z,14.40
2019-02-25T23:32:01.790Z,14.40
2019-02-25T23:34:31.254Z,14.40
2019-02-25T23:37:02.440Z,14.40
2019-02-25T23:39:36.003Z,14.30
2019-02-25T23:42:06.688Z,14.20
2019-02-25T23:44:36.221Z,14.20
2019-02-25T23:47:07.108Z,14.20
2019-02-25T23:49:39.054Z,14.20
2019-02-25T23:52:10.030Z,14.20
2019-02-25T23:54:43.383Z,14.10
2019-02-25T23:57:17.002Z,14.20
2019-02-25T23:59:46.524Z,14.10
